Time;durP1;ratioP1;P1;durP2;ratioP2;P2;SDS_P1;SDS_P2;PMS_P1;PMS_P2;Temp;Humidity;BMP_temperature;BMP_pressure;BME280_temperature;BME280_humidity;BME280_pressure;Samples;Min_cycle;Max_cycle;Signal;HPM_P1;HPM_P2
2023/01/18 00:02:25;;;;;;;23.83;10.90;;;0.40;99.90;;;;;;5080789;28;20036;-74
2023/01/18 00:04:53;;;;;;;20.35;10.45;;;0.40;99.90;;;;;;5083097;28;20028;-73
2023/01/18 00:07:19;;;;;;;26.85;10.20;;;0.30;99.90;;;;;;5081454;28;20025;-73
2023/01/18 00:09:45;;;;;;;32.53;11.02;;;0.30;99.90;;;;;;5081279;28;20024;-73
2023/01/18 00:12:10;;;;;;;26.88;11.73;;;0.20;99.90;;;;;;5081988;28;20041;-73
2023/01/18 00:14:36;;;;;;;28.35;11.60;;;0.20;99.90;;;;;;5081586;28;20094;-74
2023/01/18 00:17:01;;;;;;;26.42;13.05;;;0.10;99.90;;;;;;5081083;28;20424;-74
2023/01/18 00:19:27;;;;;;;26.73;13.00;;;0.00;99.90;;;;;;5081818;28;20031;-74
2023/01/18 00:21:53;;;;;;;25.98;12.65;;;0.00;99.90;;;;;;5082042;28;20052;-73
2023/01/18 00:24:22;;;;;;;30.42;13.77;;;0.00;99.90;;;;;;5082053;28;20028;-73
2023/01/18 00:26:48;;;;;;;28.33;13.32;;;0.00;99.90;;;;;;5083373;28;20036;-73
2023/01/18 00:29:14;;;;;;;27.17;13.05;;;0.00;99.90;;;;;;5081996;28;20030;-74
2023/01/18 00:31:40;;;;;;;27.08;12.50;;;-0.10;99.90;;;;;;5081648;28;20012;-74
2023/01/18 00:34:06;;;;;;;26.83;12.35;;;-0.10;99.90;;;;;;5081862;28;20075;-72
2023/01/18 00:36:33;;;;;;;35.28;13.35;;;-0.10;99.90;;;;;;5081861;28;20074;-71
2023/01/18 00:38:59;;;;;;;25.15;12.90;;;-0.10;99.90;;;;;;5081658;28;20081;-73
2023/01/18 00:41:25;;;;;;;28.88;12.85;;;-0.20;99.90;;;;;;5081845;28;20485;-73
2023/01/18 00:43:51;;;;;;;27.00;12.45;;;-0.20;99.90;;;;;;5081797;28;20054;-72
2023/01/18 00:46:22;;;;;;;34.35;13.77;;;-0.30;99.90;;;;;;5083363;28;20040;-75
2023/01/18 00:48:49;;;;;;;31.98;14.25;;;-0.30;99.90;;;;;;5080219;28;20031;-73
2023/01/18 00:51:19;;;;;;;34.67;14.98;;;-0.30;99.90;;;;;;5081524;28;20032;-74
2023/01/18 00:53:45;;;;;;;35.47;14.00;;;-0.30;99.90;;;;;;5081988;28;20032;-74
2023/01/18 00:56:17;;;;;;;35.63;14.52;;;-0.30;99.90;;;;;;5081413;28;20028;-75
2023/01/18 00:58:42;;;;;;;31.90;14.73;;;-0.30;99.90;;;;;;5081590;28;20108;-76
2023/01/18 01:01:09;;;;;;;35.22;13.95;;;-0.30;99.90;;;;;;5081220;28;20024;-74
2023/01/18 01:06:44;;;;;;;35.78;15.30;;;-0.40;99.90;;;;;;5082794;28;20105;-74
2023/01/18 01:09:12;;;;;;;36.33;16.30;;;-0.40;99.90;;;;;;5079231;28;20028;-75
2023/01/18 01:11:38;;;;;;;33.25;14.65;;;-0.40;99.90;;;;;;5081760;28;20075;-74
2023/01/18 01:27:44;;;;;;;37.47;16.05;;;-0.40;99.90;;;;;;5082532;28;20062;-74
2023/01/18 01:30:10;;;;;;;35.72;15.00;;;-0.40;99.90;;;;;;5079974;28;20028;-74
2023/01/18 01:32:36;;;;;;;29.83;14.35;;;-0.40;99.90;;;;;;5081929;28;20082;-73
2023/01/18 01:35:01;;;;;;;37.58;14.35;;;-0.40;99.90;;;;;;5080584;28;20024;-74
2023/01/18 01:37:27;;;;;;;32.35;14.85;;;-0.40;99.90;;;;;;5082044;28;20385;-78
2023/01/18 01:39:53;;;;;;;32.90;14.07;;;-0.40;99.90;;;;;;5079456;28;20036;-76
2023/01/18 01:42:18;;;;;;;35.78;14.80;;;-0.40;99.90;;;;;;5079508;28;20094;-75
2023/01/18 01:44:48;;;;;;;32.08;14.32;;;-0.40;99.90;;;;;;5079550;28;20024;-75
2023/01/18 01:47:47;;;;;;;33.97;14.90;;;-0.40;99.90;;;;;;5079489;28;20340;-76
2023/01/18 01:50:24;;;;;;;34.42;13.65;;;-0.40;99.90;;;;;;5067226;28;20066;-75
2023/01/18 01:52:50;;;;;;;42.50;15.25;;;-0.40;99.90;;;;;;5080775;28;20029;-75
2023/01/18 01:55:32;;;;;;;34.70;14.70;;;-0.50;99.90;;;;;;5079573;28;20043;-74
2023/01/18 01:58:00;;;;;;;35.03;14.10;;;-0.50;99.90;;;;;;5078536;28;20056;-76
2023/01/18 02:00:26;;;;;;;34.67;13.90;;;-0.50;99.90;;;;;;5078906;28;20039;-76
2023/01/18 02:03:03;;;;;;;32.50;14.32;;;-0.50;99.90;;;;;;5079456;28;20016;-75
2023/01/18 02:05:30;;;;;;;34.50;15.73;;;-0.60;99.90;;;;;;5078433;28;20033;-74
2023/01/18 02:08:01;;;;;;;42.78;15.27;;;-0.60;99.90;;;;;;5078585;28;20043;-74
2023/01/18 02:10:28;;;;;;;38.88;15.23;;;-0.60;99.90;;;;;;5080412;28;20043;-75
2023/01/18 02:12:56;;;;;;;38.60;15.80;;;-0.60;99.90;;;;;;5079196;28;20050;-74
2023/01/18 02:15:30;;;;;;;31.63;14.98;;;-0.60;99.90;;;;;;5079518;28;20016;-74
2023/01/18 02:18:13;;;;;;;32.63;15.25;;;-0.60;99.90;;;;;;5078924;28;20040;-74
2023/01/18 02:20:50;;;;;;;28.98;14.32;;;-0.60;99.90;;;;;;5078930;28;20033;-74
2023/01/18 02:23:22;;;;;;;31.05;14.68;;;-0.60;99.90;;;;;;5079209;28;20049;-75
2023/01/18 02:26:06;;;;;;;31.80;14.95;;;-0.60;99.90;;;;;;5078858;28;20033;-75
2023/01/18 02:28:35;;;;;;;33.03;15.25;;;-0.60;99.90;;;;;;5080268;28;20028;-74
2023/01/18 02:31:16;;;;;;;34.80;14.40;;;-0.60;99.90;;;;;;5077711;28;20035;-74
2023/01/18 02:33:58;;;;;;;31.45;13.73;;;-0.50;99.90;;;;;;5079545;28;20401;-74
2023/01/18 02:36:30;;;;;;;32.05;14.00;;;-0.50;99.90;;;;;;5080466;28;20043;-75
2023/01/18 02:39:03;;;;;;;29.33;13.65;;;-0.50;99.90;;;;;;5080129;28;20036;-75
2023/01/18 02:47:27;;;;;;;28.40;13.73;;;-0.60;99.90;;;;;;5080160;28;20040;-77
2023/01/18 02:49:55;;;;;;;34.40;14.65;;;-0.60;99.90;;;;;;5077966;28;20409;-77
2023/01/18 02:52:37;;;;;;;31.98;14.63;;;-0.60;99.90;;;;;;5078816;28;20115;-79
2023/01/18 02:55:04;;;;;;;28.35;13.98;;;-0.60;99.90;;;;;;5078346;28;20029;-76
2023/01/18 02:57:35;;;;;;;39.55;15.35;;;-0.60;99.90;;;;;;5078553;28;20176;-76
2023/01/18 03:00:04;;;;;;;34.33;14.40;;;-0.60;99.90;;;;;;5078498;28;20025;-76
2023/01/18 03:02:29;;;;;;;30.40;13.85;;;-0.60;99.90;;;;;;5078161;28;20032;-76
2023/01/18 03:04:55;;;;;;;35.33;14.95;;;-0.60;99.90;;;;;;5078209;28;20032;-76
2023/01/18 03:07:34;;;;;;;31.15;14.38;;;-0.60;99.90;;;;;;5079490;28;20040;-76
2023/01/18 03:10:05;;;;;;;32.28;13.68;;;-0.60;99.90;;;;;;5078204;28;20028;-75
2023/01/18 03:12:50;;;;;;;32.58;14.00;;;-0.60;99.90;;;;;;5079924;28;20051;-76
2023/01/18 03:15:34;;;;;;;31.10;13.75;;;-0.60;99.90;;;;;;5080292;28;20040;-75
2023/01/18 03:18:21;;;;;;;33.05;12.73;;;-0.60;99.90;;;;;;5079446;28;20037;-74
2023/01/18 03:20:52;;;;;;;30.58;13.30;;;-0.60;99.90;;;;;;5080293;28;20031;-75
2023/01/18 03:23:36;;;;;;;31.00;14.25;;;-0.70;99.90;;;;;;5079328;28;20044;-74
2023/01/18 03:26:05;;;;;;;39.35;16.80;;;-0.70;99.90;;;;;;5080366;28;20016;-77
2023/01/18 03:34:33;;;;;;;38.92;18.33;;;-0.80;99.90;;;;;;5080235;28;20048;-77
2023/01/18 03:37:02;;;;;;;43.80;17.47;;;-0.90;99.90;;;;;;5080609;28;20389;-76
2023/01/18 03:39:38;;;;;;;37.30;17.58;;;-0.90;99.90;;;;;;5079388;28;20263;-77
2023/01/18 03:42:15;;;;;;;48.72;18.10;;;-0.90;99.90;;;;;;5078825;28;20024;-76
2023/01/18 03:44:59;;;;;;;34.13;16.17;;;-0.90;99.90;;;;;;5078994;28;20025;-76
2023/01/18 03:47:25;;;;;;;38.42;15.88;;;-0.90;99.90;;;;;;5082209;28;20066;-78
2023/01/18 03:49:52;;;;;;;36.65;16.92;;;-0.90;99.90;;;;;;5084515;28;20029;-78
2023/01/18 03:52:36;;;;;;;31.63;15.52;;;-0.90;99.90;;;;;;5082323;28;20044;-75
2023/01/18 03:55:18;;;;;;;37.88;16.20;;;-0.90;99.90;;;;;;5082511;28;20021;-75
2023/01/18 03:57:45;;;;;;;37.55;16.50;;;-0.90;99.90;;;;;;5082159;28;20021;-76
2023/01/18 04:00:13;;;;;;;34.53;16.52;;;-0.90;99.90;;;;;;5082093;28;20020;-76
2023/01/18 04:02:47;;;;;;;31.85;15.93;;;-0.90;99.90;;;;;;5082400;28;20388;-75
2023/01/18 04:05:13;;;;;;;33.42;15.60;;;-0.90;99.90;;;;;;5082405;28;20063;-76
2023/01/18 04:07:39;;;;;;;35.05;16.30;;;-0.90;99.90;;;;;;5082269;28;20023;-77
2023/01/18 04:10:04;;;;;;;31.80;16.35;;;-0.90;99.90;;;;;;5083574;28;20021;-77
2023/01/18 04:12:33;;;;;;;37.50;16.90;;;-0.90;99.90;;;;;;5082107;28;20056;-75
2023/01/18 04:14:58;;;;;;;34.67;16.33;;;-0.90;99.90;;;;;;5082334;28;20377;-76
2023/01/18 04:17:24;;;;;;;35.65;17.30;;;-0.90;99.90;;;;;;5082419;28;20024;-78
2023/01/18 04:19:50;;;;;;;35.20;16.30;;;-1.00;99.90;;;;;;5082236;28;20028;-77
2023/01/18 04:22:16;;;;;;;28.38;15.38;;;-0.90;99.90;;;;;;5081336;28;20045;-75
2023/01/18 04:24:41;;;;;;;42.50;17.00;;;-0.90;99.90;;;;;;5081808;28;20021;-74
2023/01/18 04:27:07;;;;;;;31.10;15.13;;;-0.90;99.90;;;;;;5081777;28;20025;-75
2023/01/18 04:29:33;;;;;;;32.72;15.60;;;-0.90;99.90;;;;;;5081697;28;20023;-73
2023/01/18 04:31:58;;;;;;;38.40;16.02;;;-0.90;99.90;;;;;;5082848;28;20036;-74
2023/01/18 04:34:24;;;;;;;30.48;15.50;;;-0.90;99.90;;;;;;5081722;28;20020;-75
2023/01/18 04:36:51;;;;;;;32.78;16.25;;;-0.90;99.90;;;;;;5082151;28;20035;-75
2023/01/18 04:39:16;;;;;;;42.03;16.25;;;-0.90;99.90;;;;;;5083000;28;20036;-75
2023/01/18 04:41:45;;;;;;;31.33;16.02;;;-0.90;99.90;;;;;;5081848;28;20021;-74
2023/01/18 04:44:11;;;;;;;36.33;16.75;;;-0.90;99.90;;;;;;5081335;28;20567;-77
2023/01/18 04:46:37;;;;;;;33.33;15.40;;;-0.90;99.90;;;;;;5081427;28;20025;-75
2023/01/18 04:49:10;;;;;;;39.22;16.58;;;-0.90;99.90;;;;;;5081848;28;20025;-74
2023/01/18 04:51:37;;;;;;;35.20;15.65;;;-0.90;99.90;;;;;;5082752;28;20557;-74
2023/01/18 04:54:03;;;;;;;36.65;16.50;;;-1.00;99.90;;;;;;5082195;28;20048;-76
2023/01/18 04:56:28;;;;;;;37.22;16.77;;;-1.00;99.90;;;;;;5082630;28;20033;-75
2023/01/18 04:58:54;;;;;;;39.17;18.48;;;-1.00;99.90;;;;;;5082394;28;20040;-76
2023/01/18 05:01:20;;;;;;;40.53;18.17;;;-0.90;99.90;;;;;;5081600;28;20089;-75
2023/01/18 05:03:46;;;;;;;38.60;19.63;;;-0.80;99.90;;;;;;5082635;28;20038;-76
2023/01/18 05:06:14;;;;;;;39.50;19.33;;;-0.70;99.90;;;;;;5081249;28;20107;-74
2023/01/18 05:08:39;;;;;;;48.40;20.83;;;-0.70;99.90;;;;;;5081001;28;20028;-75
2023/01/18 05:11:11;;;;;;;47.63;21.60;;;-0.80;99.90;;;;;;5081043;28;20032;-76
2023/01/18 05:13:38;;;;;;;45.28;20.30;;;-0.80;99.90;;;;;;5080533;28;20043;-74
2023/01/18 05:16:04;;;;;;;48.30;21.15;;;-0.80;99.90;;;;;;5081945;28;20476;-75
2023/01/18 05:18:30;;;;;;;45.97;20.10;;;-0.90;99.90;;;;;;5082422;28;20028;-77
2023/01/18 05:20:56;;;;;;;42.80;20.13;;;-0.90;99.90;;;;;;5080960;28;20048;-76
2023/01/18 05:23:22;;;;;;;43.58;19.75;;;-0.90;99.90;;;;;;5080871;28;20039;-76
2023/01/18 05:25:57;;;;;;;36.58;17.27;;;-0.90;99.90;;;;;;5081699;28;20027;-75
2023/01/18 05:28:25;;;;;;;39.47;18.17;;;-0.90;99.90;;;;;;5080957;28;20082;-76
2023/01/18 05:30:52;;;;;;;46.75;17.80;;;-1.00;99.90;;;;;;5080713;28;20772;-76
2023/01/18 05:33:19;;;;;;;36.60;17.38;;;-0.90;99.90;;;;;;5080408;28;20035;-74
2023/01/18 05:35:49;;;;;;;35.78;17.08;;;-0.90;99.90;;;;;;5080538;28;20024;-75
2023/01/18 05:38:15;;;;;;;36.40;16.50;;;-0.90;99.90;;;;;;5081797;28;20043;-77
2023/01/18 05:40:47;;;;;;;36.97;17.92;;;-1.00;99.90;;;;;;5081659;28;20033;-75
2023/01/18 05:43:12;;;;;;;41.97;18.45;;;-1.00;99.90;;;;;;5082004;28;20033;-75
2023/01/18 05:45:38;;;;;;;35.05;18.40;;;-1.00;99.90;;;;;;5078170;28;20034;-75
2023/01/18 05:48:04;;;;;;;41.40;18.63;;;-1.00;99.90;;;;;;5080241;28;20021;-74
2023/01/18 05:50:30;;;;;;;43.55;19.75;;;-1.00;99.90;;;;;;5081628;28;20473;-74
2023/01/18 05:52:59;;;;;;;36.85;19.13;;;-1.00;99.90;;;;;;5080261;28;20116;-74
2023/01/18 05:55:29;;;;;;;37.17;19.00;;;-1.00;99.90;;;;;;5075534;28;20079;-74
2023/01/18 05:57:55;;;;;;;44.13;18.85;;;-1.10;99.90;;;;;;5077699;28;20024;-75
2023/01/18 06:00:21;;;;;;;40.10;19.75;;;-1.10;99.90;;;;;;5078236;28;20044;-74
2023/01/18 06:02:47;;;;;;;39.75;20.40;;;-1.10;99.90;;;;;;5077719;28;20032;-76
2023/01/18 06:05:14;;;;;;;42.45;19.77;;;-1.10;99.90;;;;;;5080082;28;20020;-75
2023/01/18 06:07:41;;;;;;;42.10;20.25;;;-1.20;99.90;;;;;;5079914;28;20025;-75
2023/01/18 06:10:07;;;;;;;36.80;19.42;;;-1.20;99.90;;;;;;5076699;28;20040;-75
2023/01/18 06:12:33;;;;;;;49.75;22.55;;;-1.20;99.90;;;;;;5078347;28;20104;-74
2023/01/18 06:14:59;;;;;;;63.47;31.00;;;-1.20;99.90;;;;;;5079841;28;20055;-75
2023/01/18 06:17:25;;;;;;;80.30;31.92;;;-1.30;99.90;;;;;;5080383;28;20020;-75
2023/01/18 06:19:51;;;;;;;51.25;25.45;;;-1.30;99.90;;;;;;5079305;28;20033;-77
2023/01/18 06:22:16;;;;;;;45.97;21.77;;;-1.30;99.90;;;;;;5076971;28;20456;-75
2023/01/18 06:24:42;;;;;;;43.55;21.40;;;-1.20;99.90;;;;;;5078158;28;20024;-76
2023/01/18 06:27:07;;;;;;;50.63;22.92;;;-1.30;99.90;;;;;;5078576;28;20042;-72
2023/01/18 06:29:33;;;;;;;54.78;24.05;;;-1.30;99.90;;;;;;5077446;28;20082;-74
2023/01/18 06:31:59;;;;;;;49.08;24.85;;;-1.30;99.90;;;;;;5077730;28;20055;-75
2023/01/18 06:34:31;;;;;;;45.95;21.38;;;-1.30;99.90;;;;;;5079761;28;20035;-77
2023/01/18 06:36:57;;;;;;;51.67;24.75;;;-1.30;99.90;;;;;;5079504;28;20493;-74
2023/01/18 06:39:22;;;;;;;50.35;24.90;;;-1.30;99.90;;;;;;5079117;28;20024;-73
2023/01/18 06:41:49;;;;;;;48.90;23.13;;;-1.30;99.90;;;;;;5077804;28;20841;-74
2023/01/18 06:44:14;;;;;;;54.20;23.30;;;-1.30;99.90;;;;;;5078991;28;20028;-74
2023/01/18 06:46:42;;;;;;;46.30;22.25;;;-1.30;99.90;;;;;;5079384;28;20112;-73
2023/01/18 06:49:08;;;;;;;49.17;21.95;;;-1.30;99.90;;;;;;5076753;28;20048;-74
2023/01/18 06:51:34;;;;;;;46.95;23.10;;;-1.30;99.90;;;;;;5078174;28;20029;-74
2023/01/18 06:54:00;;;;;;;52.17;23.38;;;-1.40;99.90;;;;;;5077691;28;20045;-74
2023/01/18 06:56:25;;;;;;;51.78;23.95;;;-1.40;99.90;;;;;;5073014;28;20118;-74
2023/01/18 06:58:54;;;;;;;50.10;23.95;;;-1.40;99.90;;;;;;5076048;28;20037;-74
2023/01/18 07:01:20;;;;;;;53.47;23.00;;;-1.50;99.90;;;;;;5079348;28;20096;-74
2023/01/18 07:03:45;;;;;;;49.75;23.90;;;-1.50;99.90;;;;;;5078922;28;20048;-74
2023/01/18 07:06:11;;;;;;;55.17;23.08;;;-1.50;99.90;;;;;;5077027;28;20030;-75
2023/01/18 07:08:38;;;;;;;49.97;22.35;;;-1.50;99.90;;;;;;5078919;28;20504;-74
2023/01/18 07:11:10;;;;;;;51.65;23.02;;;-1.50;99.90;;;;;;5074846;28;20075;-75
2023/01/18 07:13:39;;;;;;;47.75;21.80;;;-1.50;99.90;;;;;;5077689;28;20411;-73
2023/01/18 07:16:06;;;;;;;48.75;21.08;;;-1.50;99.90;;;;;;5079328;28;20021;-73
2023/01/18 07:18:31;;;;;;;55.75;22.77;;;-1.50;99.90;;;;;;5078793;28;20119;-73
2023/01/18 07:20:59;;;;;;;46.67;22.85;;;-1.50;99.90;;;;;;5080668;28;20021;-74
2023/01/18 07:23:26;;;;;;;52.45;23.40;;;-1.50;99.90;;;;;;5083525;28;20396;-74
2023/01/18 07:26:18;;;;;;;45.53;21.63;;;-1.50;99.90;;;;;;5082495;28;20028;-74
2023/01/18 07:28:48;;;;;;;46.55;22.35;;;-1.50;99.90;;;;;;5081094;28;20040;-74
2023/01/18 07:31:15;;;;;;;51.72;23.13;;;-1.50;99.90;;;;;;5077557;28;20456;-74
2023/01/18 07:33:41;;;;;;;46.17;21.60;;;-1.50;99.90;;;;;;5076806;28;20871;-75
2023/01/18 07:36:09;;;;;;;46.83;21.92;;;-1.50;99.90;;;;;;5084113;28;20025;-73
2023/01/18 07:38:36;;;;;;;64.85;26.65;;;-1.50;99.90;;;;;;5082136;28;20035;-72
2023/01/18 07:41:04;;;;;;;54.00;22.85;;;-1.40;99.90;;;;;;5084345;28;20036;-74
2023/01/18 07:43:36;;;;;;;46.38;22.15;;;-1.40;99.90;;;;;;5084476;28;20059;-74
2023/01/18 07:46:02;;;;;;;46.47;22.15;;;-1.40;99.90;;;;;;5082107;28;20481;-73
2023/01/18 07:48:28;;;;;;;56.45;22.83;;;-1.40;99.90;;;;;;5082285;28;20027;-74
2023/01/18 07:50:56;;;;;;;52.20;24.55;;;-1.40;99.90;;;;;;5080956;28;20029;-73
2023/01/18 07:53:24;;;;;;;57.03;26.92;;;-1.40;99.90;;;;;;5081860;28;20068;-74
2023/01/18 07:55:50;;;;;;;49.65;24.27;;;-1.40;99.90;;;;;;5084468;28;20078;-74
2023/01/18 07:58:18;;;;;;;46.83;22.15;;;-1.40;99.90;;;;;;5082601;28;20031;-73
2023/01/18 08:00:43;;;;;;;50.30;23.17;;;-1.40;99.90;;;;;;5080213;28;20029;-74
2023/01/18 08:03:14;;;;;;;53.72;23.40;;;-1.40;99.90;;;;;;5080790;28;20051;-74
2023/01/18 08:05:41;;;;;;;79.90;32.92;;;-1.30;99.90;;;;;;5082510;28;20028;-73
2023/01/18 08:08:12;;;;;;;94.13;35.72;;;-1.30;99.90;;;;;;5082989;28;20036;-75
2023/01/18 08:10:38;;;;;;;48.45;22.33;;;-1.20;99.90;;;;;;5080135;28;20035;-74
2023/01/18 08:13:05;;;;;;;53.45;23.10;;;-1.20;99.90;;;;;;5081478;28;20040;-74
2023/01/18 08:15:31;;;;;;;53.33;21.77;;;-1.20;99.90;;;;;;5082731;28;20051;-74
2023/01/18 08:18:01;;;;;;;45.65;20.23;;;-1.20;99.90;;;;;;5083595;28;20469;-75
2023/01/18 08:20:27;;;;;;;50.55;22.15;;;-1.20;99.90;;;;;;5082025;28;20063;-75
2023/01/18 08:22:55;;;;;;;53.85;21.20;;;-1.10;99.90;;;;;;5082716;28;20059;-75
2023/01/18 08:25:21;;;;;;;45.13;21.42;;;-1.10;99.90;;;;;;5080972;28;20061;-74
2023/01/18 08:27:47;;;;;;;51.45;22.35;;;-1.10;99.90;;;;;;5081704;28;20027;-74
2023/01/18 08:30:13;;;;;;;46.05;20.70;;;-1.10;99.90;;;;;;5080453;28;20392;-74
2023/01/18 08:32:39;;;;;;;43.92;21.27;;;-1.00;99.90;;;;;;5077832;28;20044;-74
2023/01/18 08:35:05;;;;;;;49.47;20.73;;;-1.00;99.90;;;;;;5081675;28;20021;-74
2023/01/18 08:37:31;;;;;;;45.03;20.20;;;-0.90;99.90;;;;;;5081154;28;20089;-75
2023/01/18 08:39:57;;;;;;;56.70;22.10;;;-0.80;99.90;;;;;;5080626;28;20033;-74
2023/01/18 08:42:23;;;;;;;51.20;22.33;;;-0.80;99.90;;;;;;5083066;28;20032;-73
2023/01/18 08:44:48;;;;;;;45.25;20.80;;;-0.70;99.90;;;;;;5081792;28;20470;-73
2023/01/18 08:47:14;;;;;;;43.97;20.85;;;-0.60;99.90;;;;;;5081233;28;20037;-76
2023/01/18 08:49:41;;;;;;;48.83;20.20;;;-0.50;99.90;;;;;;5083284;28;20530;-76
2023/01/18 08:52:09;;;;;;;42.33;20.42;;;-0.30;99.90;;;;;;5080089;28;20040;-75
2023/01/18 08:54:35;;;;;;;42.58;20.48;;;-0.20;99.90;;;;;;5083032;28;20028;-74
2023/01/18 08:57:01;;;;;;;45.80;19.13;;;-0.10;99.90;;;;;;5082687;28;20150;-74
2023/01/18 08:59:27;;;;;;;42.17;19.38;;;0.00;99.90;;;;;;5081067;28;20116;-75
2023/01/18 09:01:53;;;;;;;41.95;19.02;;;0.00;99.90;;;;;;5080095;28;20458;-74
2023/01/18 09:04:19;;;;;;;42.75;19.45;;;0.10;99.90;;;;;;5080522;28;20033;-74
2023/01/18 09:06:45;;;;;;;38.97;19.25;;;0.10;99.90;;;;;;5082645;28;20031;-74
2023/01/18 09:09:11;;;;;;;37.13;18.75;;;0.30;99.90;;;;;;5082189;28;20099;-74
2023/01/18 09:11:37;;;;;;;43.05;19.10;;;0.40;99.90;;;;;;5080223;28;20032;-74
2023/01/18 09:14:03;;;;;;;39.55;18.63;;;0.60;99.90;;;;;;5078520;28;20028;-75
2023/01/18 09:16:30;;;;;;;38.30;19.02;;;0.60;99.90;;;;;;5082485;28;20028;-75
2023/01/18 09:18:57;;;;;;;37.38;17.58;;;0.60;99.90;;;;;;5081543;28;20489;-75
2023/01/18 09:21:24;;;;;;;46.50;18.75;;;0.70;99.90;;;;;;5080846;28;20052;-74
2023/01/18 09:23:49;;;;;;;40.85;18.85;;;0.70;99.90;;;;;;5080031;28;20032;-74
2023/01/18 09:26:17;;;;;;;39.45;19.02;;;0.80;99.90;;;;;;5077437;28;20029;-74
2023/01/18 09:28:44;;;;;;;41.88;19.02;;;0.90;99.90;;;;;;5079678;28;20958;-74
2023/01/18 09:31:11;;;;;;;37.38;18.77;;;0.90;99.90;;;;;;5078573;28;20052;-76
2023/01/18 09:33:37;;;;;;;43.00;18.33;;;0.90;99.90;;;;;;5082018;28;20036;-75
2023/01/18 09:36:09;;;;;;;47.33;20.48;;;1.00;99.90;;;;;;5080543;28;20028;-74
2023/01/18 09:38:36;;;;;;;56.58;23.30;;;1.20;99.90;;;;;;5078497;28;20017;-74
2023/01/18 09:41:04;;;;;;;80.80;29.40;;;1.30;99.90;;;;;;5080470;28;20028;-74
2023/01/18 09:43:42;;;;;;;45.75;20.08;;;1.50;99.90;;;;;;5078172;28;20029;-77
2023/01/18 09:46:19;;;;;;;34.80;18.50;;;1.60;99.90;;;;;;5074449;28;20050;-75
2023/01/18 09:48:57;;;;;;;35.75;17.70;;;1.70;99.90;;;;;;5078909;28;20032;-76
2023/01/18 09:51:42;;;;;;;37.13;17.00;;;1.80;99.90;;;;;;5077246;28;20087;-74
2023/01/18 09:54:52;;;;;;;37.63;18.30;;;2.10;99.90;;;;;;5081305;28;20060;-74
2023/01/18 09:58:26;;;;;;;32.78;17.40;;;2.30;99.90;;;;;;5061939;28;20029;-74
2023/01/18 10:01:00;;;;;;;32.15;16.83;;;2.50;99.90;;;;;;5022722;28;20061;-76
2023/01/18 10:03:45;;;;;;;40.50;15.75;;;2.70;99.90;;;;;;5039597;28;20044;-76
2023/01/18 10:06:18;;;;;;;29.58;15.45;;;2.90;99.90;;;;;;5075797;28;20115;-75
2023/01/18 10:08:55;;;;;;;36.47;15.32;;;3.00;99.90;;;;;;5078262;28;20029;-75
2023/01/18 10:11:46;;;;;;;35.67;16.13;;;3.10;99.90;;;;;;5079517;28;20029;-76
2023/01/18 10:14:34;;;;;;;35.83;16.67;;;3.10;99.90;;;;;;5080517;28;20044;-74
2023/01/18 10:17:05;;;;;;;32.80;16.13;;;3.10;99.90;;;;;;5081751;28;20028;-75
2023/01/18 10:19:32;;;;;;;41.15;17.60;;;3.10;99.90;;;;;;5079771;28;20017;-76
2023/01/18 10:22:16;;;;;;;32.85;16.63;;;3.10;99.90;;;;;;5078930;28;20060;-75
2023/01/18 10:24:48;;;;;;;;;;;3.10;99.90;;;;;;5078642;28;20052;-74
2023/01/18 10:27:17;;;;;;;39.50;17.67;;;3.10;99.90;;;;;;5076452;28;20014;-75
2023/01/18 10:30:04;;;;;;;33.88;16.90;;;3.20;99.90;;;;;;5077781;28;20039;-76
2023/01/18 10:32:35;;;;;;;32.20;16.80;;;3.30;99.90;;;;;;5080436;28;20036;-77
2023/01/18 10:35:05;;;;;;;38.10;17.25;;;3.40;99.90;;;;;;5080679;28;20028;-77
2023/01/18 10:37:39;;;;;;;31.60;16.50;;;3.50;99.90;;;;;;5068249;28;20020;-76
2023/01/18 10:40:09;;;;;;;32.90;16.55;;;3.70;99.90;;;;;;5077264;28;20432;-74
2023/01/18 10:42:40;;;;;;;32.25;16.55;;;3.70;99.90;;;;;;5078827;28;20044;-74
2023/01/18 10:45:21;;;;;;;38.20;16.35;;;3.80;99.90;;;;;;5069753;28;20028;-75
2023/01/18 10:47:48;;;;;;;32.05;16.15;;;4.00;99.90;;;;;;5078580;28;20032;-74
2023/01/18 10:50:25;;;;;;;28.50;15.30;;;4.20;99.90;;;;;;5078979;28;20096;-74
2023/01/18 10:52:51;;;;;;;29.95;15.10;;;4.30;99.90;;;;;;5081082;28;20052;-74
2023/01/18 10:55:18;;;;;;;29.83;15.52;;;4.30;99.90;;;;;;5082988;28;20144;-75
2023/01/18 10:57:53;;;;;;;35.45;15.95;;;4.40;99.90;;;;;;5082004;28;20760;-75
2023/01/18 11:00:31;;;;;;;27.00;14.40;;;4.50;99.90;;;;;;5080861;28;20412;-76
2023/01/18 11:02:59;;;;;;;29.95;15.90;;;4.50;99.90;;;;;;5082335;28;20032;-75
2023/01/18 11:05:44;;;;;;;30.48;15.25;;;4.50;99.90;;;;;;5082051;28;20044;-73
2023/01/18 11:08:30;;;;;;;27.40;14.07;;;4.60;99.90;;;;;;5081110;28;20033;-74
2023/01/18 11:11:00;;;;;;;30.42;15.02;;;4.50;99.90;;;;;;5083220;28;20060;-75
2023/01/18 11:13:48;;;;;;;33.45;15.77;;;4.70;99.90;;;;;;5082484;28;20039;-74
2023/01/18 11:16:18;;;;;;;34.10;15.95;;;4.90;99.90;;;;;;5084750;28;20382;-74
2023/01/18 11:18:56;;;;;;;32.33;14.77;;;5.10;99.90;;;;;;5083334;28;20017;-75
2023/01/18 11:21:24;;;;;;;29.88;16.10;;;5.30;99.90;;;;;;5081687;28;20079;-75
2023/01/18 11:23:51;;;;;;;34.65;15.23;;;5.20;99.90;;;;;;5083551;28;20024;-73
2023/01/18 11:26:20;;;;;;;25.05;14.07;;;5.40;99.90;;;;;;5082876;28;20067;-74
2023/01/18 11:29:00;;;;;;;37.25;16.20;;;5.40;99.90;;;;;;5081504;28;20785;-74
2023/01/18 11:31:29;;;;;;;33.65;15.02;;;5.50;99.90;;;;;;5082857;28;20382;-75
2023/01/18 11:33:58;;;;;;;26.05;14.77;;;5.90;99.90;;;;;;5083117;28;20032;-76
2023/01/18 11:36:37;;;;;;;28.75;15.98;;;6.50;99.90;;;;;;5083063;28;20021;-75
2023/01/18 11:39:33;;;;;;;26.00;14.48;;;7.20;99.90;;;;;;5084095;28;20028;-75
2023/01/18 11:42:35;;;;;;;30.33;15.60;;;7.90;99.90;;;;;;5082542;28;20492;-75
2023/01/18 11:45:23;;;;;;;34.45;17.75;;;8.40;99.90;;;;;;5083028;28;20035;-72
2023/01/18 11:48:28;;;;;;;32.72;16.02;;;8.60;99.90;;;;;;5082993;28;20036;-70
2023/01/18 11:50:58;;;;;;;25.67;15.68;;;8.80;99.90;;;;;;5083325;28;20025;-73
2023/01/18 11:53:26;;;;;;;26.20;15.23;;;9.00;99.90;;;;;;5082901;28;20396;-75
2023/01/18 11:56:05;;;;;;;29.35;16.25;;;9.30;99.90;;;;;;5083268;28;20028;-74
2023/01/18 11:58:33;;;;;;;29.92;15.52;;;9.30;99.90;;;;;;5081718;28;20199;-73
2023/01/18 12:01:20;;;;;;;28.70;15.80;;;9.20;99.90;;;;;;5082837;28;20381;-75
2023/01/18 12:04:05;;;;;;;28.60;15.15;;;9.20;99.90;;;;;;5082319;28;20040;-69
2023/01/18 12:06:46;;;;;;;28.98;15.15;;;9.30;99.90;;;;;;5083270;28;20590;-72
2023/01/18 12:09:24;;;;;;;34.17;15.80;;;9.30;99.90;;;;;;5082417;28;20031;-74
2023/01/18 12:12:16;;;;;;;26.88;13.73;;;9.50;99.90;;;;;;5082239;28;20032;-72
2023/01/18 12:14:56;;;;;;;28.38;15.63;;;9.80;99.90;;;;;;5081956;28;20037;-73
2023/01/18 12:17:52;;;;;;;26.20;14.70;;;9.80;99.90;;;;;;5084157;28;20040;-71
2023/01/18 12:20:48;;;;;;;26.52;13.68;;;9.90;99.90;;;;;;5083784;28;20017;-73
2023/01/18 12:23:22;;;;;;;25.13;14.65;;;10.30;99.90;;;;;;5082075;28;20075;-72
2023/01/18 12:26:06;;;;;;;27.23;13.25;;;10.50;99.90;;;;;;5083905;28;20025;-73
2023/01/18 12:29:02;;;;;;;31.08;13.75;;;10.60;99.90;;;;;;5083712;28;20032;-74
2023/01/18 12:31:41;;;;;;;26.40;13.70;;;10.60;99.90;;;;;;5081167;28;20032;-69
2023/01/18 12:34:13;;;;;;;37.75;13.68;;;10.50;99.90;;;;;;5081077;28;20067;-72
2023/01/18 12:36:53;;;;;;;23.60;12.98;;;10.50;99.90;;;;;;5082981;28;20058;-72
2023/01/18 12:39:51;;;;;;;21.73;12.05;;;10.70;99.90;;;;;;5082312;28;20024;-71
2023/01/18 12:42:41;;;;;;;28.38;13.30;;;10.80;99.90;;;;;;5079315;28;20496;-73
2023/01/18 12:45:24;;;;;;;26.52;13.90;;;10.70;99.90;;;;;;5080826;28;20029;-73
2023/01/18 12:47:59;;;;;;;22.63;11.03;;;10.90;99.90;;;;;;5081641;28;20060;-69
2023/01/18 12:50:26;;;;;;;;;;;11.00;99.90;;;;;;5082437;28;20763;-74
2023/01/18 12:52:58;;;;;;;26.05;13.07;;;11.20;99.90;;;;;;5081437;28;20301;-73
2023/01/18 12:55:30;;;;;;;21.95;11.30;;;11.50;99.90;;;;;;5082138;28;20032;-71
2023/01/18 12:57:58;;;;;;;23.02;11.85;;;11.40;99.90;;;;;;5083276;28;20024;-72
2023/01/18 13:00:30;;;;;;;21.67;11.32;;;11.20;99.90;;;;;;5081756;28;20036;-72
2023/01/18 13:02:56;;;;;;;27.17;11.55;;;10.90;99.90;;;;;;5077774;28;20569;-72
2023/01/18 13:05:51;;;;;;;20.42;11.40;;;10.60;99.90;;;;;;5076881;28;20043;-73
2023/01/18 13:08:37;;;;;;;19.67;11.82;;;10.60;99.90;;;;;;5080709;28;20039;-71
2023/01/18 13:11:17;;;;;;;20.52;11.40;;;10.50;99.90;;;;;;5079480;28;20086;-73
2023/01/18 13:13:46;;;;;;;25.23;12.88;;;10.40;99.90;;;;;;5080084;28;20774;-73
2023/01/18 13:16:34;;;;;;;30.63;14.40;;;10.30;99.90;;;;;;5080000;28;20508;-75
2023/01/18 13:19:04;;;;;;;23.42;11.40;;;10.40;99.90;;;;;;5078894;28;20059;-75
2023/01/18 13:21:33;;;;;;;18.65;10.07;;;10.40;99.90;;;;;;5079992;28;20135;-73